createdAt,value
2022-12-31T00:02:00.326Z,12.95
2022-12-31T00:06:13.297Z,13.25
2022-12-31T00:10:15.340Z,14.93
2022-12-31T00:14:17.138Z,14.63
2022-12-31T00:18:18.929Z,13.07
2022-12-31T00:22:20.675Z,14.43
2022-12-31T00:26:25.422Z,14.13
2022-12-31T00:30:27.206Z,12.80
2022-12-31T00:34:28.952Z,11.95
2022-12-31T00:38:30.790Z,10.77
2022-12-31T00:42:32.551Z,10.98
2022-12-31T00:50:35.870Z,12.45
2022-12-31T00:54:37.673Z,10.98
2022-12-31T00:58:40.190Z,11.43
2022-12-31T01:02:42.234Z,9.88
2022-12-31T01:06:44.587Z,11.38
2022-12-31T01:11:09.081Z,9.65
2022-12-31T01:15:11.118Z,12.63
2022-12-31T01:19:20.229Z,12.43
2022-12-31T01:23:21.985Z,12.07
2022-12-31T01:27:23.718Z,11.32
2022-12-31T01:31:25.790Z,9.88
2022-12-31T01:35:27.593Z,12.80
2022-12-31T01:39:29.391Z,12.30
2022-12-31T01:43:45.086Z,11.88
2022-12-31T01:47:53.616Z,8.75
2022-12-31T01:52:12.091Z,10.35
2022-12-31T01:56:14.467Z,12.40
2022-12-31T02:00:17.085Z,10.57
2022-12-31T02:04:21.322Z,12.63
2022-12-31T02:08:23.111Z,13.45
2022-12-31T02:12:24.933Z,11.40
2022-12-31T02:16:51.400Z,13.65
2022-12-31T02:21:01.990Z,13.23
2022-12-31T02:25:22.174Z,14.77
2022-12-31T02:29:48.277Z,13.82
2022-12-31T02:33:56.900Z,10.57
2022-12-31T02:38:07.821Z,10.25
2022-12-31T02:42:10.905Z,11.60
2022-12-31T02:46:12.658Z,11.15
2022-12-31T02:50:24.946Z,14.07
2022-12-31T02:54:51.408Z,11.50
2022-12-31T02:59:51.283Z,14.52
2022-12-31T03:04:13.327Z,11.90
2022-12-31T03:08:23.193Z,13.77
2022-12-31T03:12:47.212Z,11.77
2022-12-31T03:16:49.219Z,12.90
2022-12-31T03:21:09.941Z,14.48
2022-12-31T03:25:34.427Z,10.30
2022-12-31T03:29:36.191Z,13.73
2022-12-31T03:33:40.222Z,15.40
2022-12-31T03:37:42.897Z,15.63
2022-12-31T03:41:44.650Z,15.13
2022-12-31T03:45:51.791Z,13.95
2022-12-31T03:49:53.689Z,13.07
2022-12-31T03:53:55.475Z,17.10
2022-12-31T03:57:57.330Z,14.88
2022-12-31T04:01:59.260Z,17.88
2022-12-31T04:06:01.144Z,17.30
2022-12-31T04:10:05.115Z,14.70
2022-12-31T04:14:06.917Z,16.30
2022-12-31T04:18:08.964Z,19.50
2022-12-31T04:22:10.867Z,16.70
2022-12-31T04:26:12.948Z,18.30
2022-12-31T04:30:14.922Z,19.85
2022-12-31T04:34:16.820Z,18.55
2022-12-31T04:38:18.635Z,15.57
2022-12-31T04:42:20.708Z,14.02
2022-12-31T04:46:25.472Z,10.13
2022-12-31T04:50:27.256Z,5.78
2022-12-31T04:54:29.233Z,8.15
2022-12-31T04:58:31.071Z,5.35
2022-12-31T05:02:33.036Z,7.97
2022-12-31T05:06:35.024Z,8.50
2022-12-31T05:10:37.547Z,7.60
2022-12-31T05:14:39.351Z,7.57
2022-12-31T05:18:41.282Z,12.73
2022-12-31T05:22:43.259Z,9.48
2022-12-31T05:26:45.235Z,9.35
2022-12-31T05:30:51.546Z,6.97
2022-12-31T05:34:53.771Z,8.17
2022-12-31T05:38:56.690Z,10.27
2022-12-31T05:42:59.765Z,15.23
2022-12-31T05:47:01.576Z,10.35
2022-12-31T05:51:03.987Z,6.85
2022-12-31T05:55:06.194Z,4.57
2022-12-31T05:59:08.056Z,5.38
2022-12-31T06:03:10.090Z,6.88
2022-12-31T06:07:11.999Z,10.05
2022-12-31T06:11:13.740Z,8.75
2022-12-31T06:15:15.906Z,6.22
2022-12-31T06:19:17.721Z,5.47
2022-12-31T06:23:19.461Z,5.43
2022-12-31T06:27:21.303Z,5.72
2022-12-31T06:31:23.102Z,4.68
2022-12-31T06:35:24.866Z,4.22
2022-12-31T06:39:26.912Z,3.65
2022-12-31T06:43:28.680Z,5.75
2022-12-31T06:47:30.451Z,9.23
2022-12-31T06:51:32.214Z,13.63
2022-12-31T06:55:34.253Z,18.20
2022-12-31T06:59:37.729Z,19.88
2022-12-31T07:04:19.945Z,19.80
2022-12-31T07:09:04.977Z,13.70
2022-12-31T07:13:25.521Z,11.80
2022-12-31T07:18:06.618Z,13.23
2022-12-31T07:22:15.301Z,7.68
2022-12-31T07:26:21.231Z,13.82
2022-12-31T07:30:36.347Z,15.48
2022-12-31T07:34:52.027Z,16.13
2022-12-31T07:39:08.721Z,13.40
2022-12-31T07:43:35.579Z,13.60
2022-12-31T07:47:37.594Z,11.33
2022-12-31T07:51:39.987Z,11.10
2022-12-31T07:55:41.805Z,10.90
2022-12-31T08:00:01.901Z,7.15
2022-12-31T08:04:16.072Z,6.75
2022-12-31T08:09:11.788Z,5.65
2022-12-31T08:13:13.759Z,7.38
2022-12-31T08:17:17.921Z,7.95
2022-12-31T08:21:49.856Z,8.18
2022-12-31T08:26:31.581Z,4.47
2022-12-31T08:30:37.058Z,3.70
2022-12-31T08:34:49.451Z,17.88
2022-12-31T08:38:56.966Z,14.35
2022-12-31T08:43:15.533Z,9.95
2022-12-31T08:47:38.309Z,9.85
2022-12-31T08:51:40.983Z,13.90
2022-12-31T08:55:45.651Z,12.32
2022-12-31T08:59:52.418Z,9.25
2022-12-31T09:04:01.136Z,6.20
2022-12-31T09:08:21.736Z,6.38
2022-12-31T09:13:03.672Z,9.52
2022-12-31T09:17:39.580Z,12.52
2022-12-31T09:21:44.436Z,8.13
2022-12-31T09:26:03.734Z,10.25
2022-12-31T09:30:12.520Z,10.32
2022-12-31T09:34:24.993Z,11.87
2022-12-31T09:38:36.552Z,9.18
2022-12-31T09:43:26.188Z,8.10
2022-12-31T09:48:11.474Z,8.48
2022-12-31T09:52:32.179Z,11.25
2022-12-31T09:56:42.811Z,12.30
2022-12-31T10:01:01.362Z,10.88
2022-12-31T10:05:29.265Z,6.80
2022-12-31T10:09:46.316Z,7.28
2022-12-31T10:14:12.137Z,7.95
2022-12-31T10:18:16.655Z,7.68
2022-12-31T10:23:00.492Z,7.78
2022-12-31T10:27:14.542Z,7.75
2022-12-31T10:31:21.585Z,9.75
2022-12-31T10:44:04.854Z,8.05
2022-12-31T10:48:44.025Z,8.80
2022-12-31T10:53:08.712Z,7.43
2022-12-31T10:57:32.652Z,6.50
2022-12-31T11:01:59.329Z,8.20
2022-12-31T11:06:32.119Z,7.18
2022-12-31T11:10:39.633Z,7.53
2022-12-31T11:15:30.200Z,6.45
2022-12-31T11:19:59.223Z,7.50
2022-12-31T11:24:34.677Z,9.88
2022-12-31T11:28:42.559Z,11.15
2022-12-31T11:32:54.727Z,7.60
2022-12-31T11:37:22.642Z,6.95
2022-12-31T11:46:13.345Z,6.47
2022-12-31T11:50:45.658Z,5.95
2022-12-31T11:55:03.519Z,6.22
2022-12-31T11:59:18.625Z,2.97
2022-12-31T12:03:21.650Z,2.60
2022-12-31T12:07:24.145Z,3.00
2022-12-31T12:11:28.731Z,4.53
2022-12-31T12:15:35.005Z,3.45
2022-12-31T12:19:46.343Z,3.63
2022-12-31T12:23:54.557Z,4.63
2022-12-31T12:27:56.371Z,7.80
2022-12-31T12:32:02.366Z,6.10
2022-12-31T12:36:09.692Z,6.22
2022-12-31T12:40:29.894Z,8.23
2022-12-31T12:44:38.469Z,6.93
2022-12-31T12:48:43.484Z,4.75
2022-12-31T12:53:17.911Z,5.43
2022-12-31T12:57:34.649Z,6.50
2022-12-31T13:01:46.172Z,6.10
2022-12-31T13:06:14.958Z,6.95
2022-12-31T13:10:38.923Z,6.90
2022-12-31T13:14:58.742Z,8.43
2022-12-31T13:19:15.135Z,11.02
2022-12-31T13:23:32.554Z,8.20
2022-12-31T13:27:42.425Z,8.45
2022-12-31T13:31:45.831Z,10.73
2022-12-31T13:36:07.493Z,11.80
2022-12-31T13:40:21.172Z,9.65
2022-12-31T13:44:31.231Z,7.68
2022-12-31T13:48:39.707Z,7.22
2022-12-31T13:52:59.741Z,8.52
2022-12-31T13:57:16.890Z,8.73
2022-12-31T14:01:30.703Z,6.05
2022-12-31T14:05:43.038Z,5.37
2022-12-31T14:09:46.515Z,9.38
2022-12-31T14:14:06.948Z,7.75
2022-12-31T14:18:31.146Z,7.43
2022-12-31T14:22:39.710Z,6.55
2022-12-31T14:26:48.029Z,12.13
2022-12-31T14:30:55.932Z,8.68
2022-12-31T14:35:22.238Z,3.78
2022-12-31T14:39:23.925Z,4.72
2022-12-31T14:43:33.384Z,3.65
2022-12-31T14:47:53.075Z,3.50
2022-12-31T14:51:54.836Z,3.78
2022-12-31T14:56:06.024Z,3.63
2022-12-31T15:00:51.126Z,2.65
2022-12-31T15:05:04.727Z,2.83
2022-12-31T15:09:15.303Z,3.03
2022-12-31T15:13:23.269Z,3.30
2022-12-31T15:17:37.372Z,2.00
2022-12-31T15:21:47.176Z,4.43
2022-12-31T15:25:55.289Z,4.95
2022-12-31T15:29:57.276Z,8.18
2022-12-31T15:34:07.834Z,7.75
2022-12-31T15:38:15.321Z,8.57
2022-12-31T15:42:50.393Z,7.55
2022-12-31T15:47:02.957Z,16.27
2022-12-31T15:51:05.638Z,9.13
2022-12-31T15:55:08.039Z,8.57
2022-12-31T15:59:14.052Z,7.97
2022-12-31T16:03:24.632Z,7.88
2022-12-31T16:07:28.440Z,8.30
2022-12-31T16:11:31.228Z,9.93
2022-12-31T16:15:34.309Z,6.53
2022-12-31T16:19:43.266Z,8.45
2022-12-31T16:23:53.759Z,8.05
2022-12-31T16:27:56.104Z,7.13
2022-12-31T16:31:58.098Z,7.07
2022-12-31T16:36:01.916Z,8.55
2022-12-31T16:40:19.981Z,9.70
2022-12-31T16:44:30.460Z,5.25
2022-12-31T16:48:32.312Z,6.78
2022-12-31T16:52:38.612Z,5.75
2022-12-31T16:56:43.085Z,3.63
2022-12-31T17:00:46.632Z,2.50
2022-12-31T17:04:55.753Z,2.90
2022-12-31T17:09:00.797Z,9.52
2022-12-31T17:13:27.588Z,10.55
2022-12-31T17:17:35.893Z,9.82
2022-12-31T17:21:37.815Z,9.05
2022-12-31T17:25:39.596Z,7.85
2022-12-31T17:29:42.046Z,9.63
2022-12-31T17:33:44.934Z,8.30
2022-12-31T17:37:46.819Z,13.13
2022-12-31T17:41:51.491Z,7.28
2022-12-31T17:45:54.675Z,8.15
2022-12-31T17:49:56.488Z,9.35
2022-12-31T17:54:00.169Z,8.60
2022-12-31T17:58:05.146Z,5.00
2022-12-31T18:02:12.909Z,8.02
2022-12-31T18:06:17.010Z,7.65
2022-12-31T18:10:22.369Z,5.90
2022-12-31T18:14:24.119Z,4.88
2022-12-31T18:18:28.883Z,8.30
2022-12-31T18:22:30.738Z,6.10
2022-12-31T18:26:34.432Z,6.55
2022-12-31T18:30:36.292Z,8.73
2022-12-31T18:34:38.611Z,8.05
2022-12-31T18:38:40.951Z,12.98
2022-12-31T18:42:43.424Z,11.13
2022-12-31T18:46:45.306Z,9.15
2022-12-31T18:50:47.528Z,7.78
2022-12-31T18:54:50.450Z,8.55
2022-12-31T18:58:52.642Z,6.78
2022-12-31T19:02:54.420Z,13.27
2022-12-31T19:06:56.669Z,9.05
2022-12-31T19:10:58.441Z,4.78
2022-12-31T19:15:00.189Z,5.30
2022-12-31T19:19:08.323Z,7.85
2022-12-31T19:23:16.462Z,5.45
2022-12-31T19:27:18.232Z,5.03
2022-12-31T19:31:21.611Z,3.70
2022-12-31T19:35:24.095Z,5.68
2022-12-31T19:39:25.933Z,8.55
2022-12-31T19:43:27.706Z,7.90
2022-12-31T19:47:29.486Z,6.97
2022-12-31T19:51:31.247Z,11.70
2022-12-31T19:55:33.042Z,13.27
2022-12-31T19:59:34.773Z,11.70
2022-12-31T20:03:36.567Z,7.20
2022-12-31T20:07:38.591Z,9.85
2022-12-31T20:11:40.427Z,10.88
2022-12-31T20:15:47.672Z,14.13
2022-12-31T20:19:49.564Z,11.27
2022-12-31T20:23:52.726Z,12.82
2022-12-31T20:27:55.461Z,11.90
2022-12-31T20:31:57.194Z,12.70
2022-12-31T20:36:05.255Z,12.70
2022-12-31T20:40:07.648Z,18.88
2022-12-31T20:44:09.526Z,13.60
2022-12-31T20:48:11.274Z,11.60
2022-12-31T20:52:13.213Z,12.70
2022-12-31T20:56:15.412Z,14.73
2022-12-31T21:00:17.661Z,9.90
2022-12-31T21:04:19.549Z,6.70
2022-12-31T21:08:21.396Z,8.18
2022-12-31T21:12:41.808Z,6.93
2022-12-31T21:16:43.570Z,7.20
2022-12-31T21:20:49.951Z,12.32
2022-12-31T21:24:51.727Z,9.47
2022-12-31T21:28:53.801Z,13.90
2022-12-31T21:32:55.545Z,22.88
2022-12-31T21:36:57.291Z,13.48
2022-12-31T21:41:03.615Z,7.93
2022-12-31T21:45:06.134Z,13.23
2022-12-31T21:49:07.912Z,21.88
2022-12-31T21:53:09.649Z,28.42
2022-12-31T21:57:11.637Z,19.35
2022-12-31T22:01:39.836Z,47.20
2022-12-31T22:06:13.959Z,19.67
2022-12-31T22:10:15.794Z,16.00
2022-12-31T22:14:17.554Z,14.90
2022-12-31T22:18:19.866Z,15.30
2022-12-31T22:22:21.646Z,12.95
2022-12-31T22:26:26.603Z,13.43
2022-12-31T22:30:28.587Z,10.30
2022-12-31T22:34:30.393Z,36.17
2022-12-31T22:38:33.205Z,26.02
2022-12-31T22:42:34.991Z,23.58
2022-12-31T22:46:36.791Z,19.73
2022-12-31T22:50:38.578Z,16.38
2022-12-31T22:54:40.380Z,87.05
2022-12-31T22:58:42.613Z,16.42
2022-12-31T23:02:44.601Z,9.60
2022-12-31T23:06:46.663Z,22.17
2022-12-31T23:11:08.839Z,34.17
2022-12-31T23:15:29.325Z,54.28
2022-12-31T23:19:49.792Z,98.95
2022-12-31T23:23:53.738Z,123.95
2022-12-31T23:27:55.545Z,59.08
2022-12-31T23:31:57.366Z,38.88
2022-12-31T23:36:06.095Z,30.27
2022-12-31T23:40:08.736Z,20.42
2022-12-31T23:44:12.313Z,26.45
2022-12-31T23:48:14.065Z,17.63
2022-12-31T23:52:15.830Z,116.70
2022-12-31T23:56:23.671Z,73.65
